KMHK/MHK METAR and TAF weather

Enter ICAO airport designator
Station Type Date Time Source
KMHK METAR 2019/10/18 10:52 UTC NOAA

KMHK 181052Z AUTO 19011G20KT 10SM CLR 14/05 A2973 RMK AO2 SLP062 T01440050


Station Type Date Time Source
KMHK Decoded METAR 2019/10/18 10:52 UTC NOAA

MANHATTAN REGIONAL AIRPORT, KS, United States (KMHK) 39-08N 96-41W 317M
Oct 18, 2019 - 06:52 AM EDT / 2019.10.18 1052 UTC
Wind: from the S (190 degrees) at 13 MPH (11 KT) gusting to 23 MPH (20 KT):0
Visibility: 10 mile(s):0
Sky conditions: clear
Temperature: 57.9 F (14.4 C)
Dew Point: 41.0 F (5.0 C)
Relative Humidity: 53%
Pressure (altimeter): 29.73 in. Hg (1006 hPa)
ob: KMHK 181052Z AUTO 19011G20KT 10SM CLR 14/05 A2973 RMK AO2 SLP062 T01440050
cycle: 11

Station Type Date Time Source
KMHK TAF 2019/10/18 06:22 UTC NOAA

TAF KMHK 180520Z 1806/1906 18010KT P6SM SCT250 WS020/20050KT
FM181500 19024G35KT P6SM FEW250
FM182300 17010KT P6SM SCT100

Example: see airport list